sensor_id;sensor_type;location;lat;lon;timestamp;pressure;altitude;pressure_sealevel;temperature;humidity
69717;BME280;67420;46.144;19.666;2023-04-12T00:09:33;99593.84;;;22.57;44.90
69717;BME280;67420;46.144;19.666;2023-04-12T00:19:37;99597.47;;;22.48;44.67
69717;BME280;67420;46.144;19.666;2023-04-12T00:29:42;99599.84;;;22.51;44.50
69717;BME280;67420;46.144;19.666;2023-04-12T00:39:44;99618.34;;;22.54;44.44
69717;BME280;67420;46.144;19.666;2023-04-12T00:49:46;99610.44;;;22.52;44.45
69717;BME280;67420;46.144;19.666;2023-04-12T00:59:48;99580.34;;;22.49;43.88
69717;BME280;67420;46.144;19.666;2023-04-12T01:09:57;99555.81;;;22.44;44.34
69717;BME280;67420;46.144;19.666;2023-04-12T01:20:13;99564.09;;;22.50;43.94
69717;BME280;67420;46.144;19.666;2023-04-12T01:30:19;99543.38;;;22.43;44.29
69717;BME280;67420;46.144;19.666;2023-04-12T01:40:22;99542.22;;;22.45;44.17
69717;BME280;67420;46.144;19.666;2023-04-12T02:00:49;99525.59;;;22.42;43.92
69717;BME280;67420;46.144;19.666;2023-04-12T02:10:52;99516.31;;;22.36;44.20
69717;BME280;67420;46.144;19.666;2023-04-12T02:20:55;99525.75;;;22.40;43.90
69717;BME280;67420;46.144;19.666;2023-04-12T02:30:57;99536.16;;;22.43;43.80
69717;BME280;67420;46.144;19.666;2023-04-12T02:40:59;99541.00;;;22.40;43.63
69717;BME280;67420;46.144;19.666;2023-04-12T02:51:02;99541.69;;;22.42;43.91
69717;BME280;67420;46.144;19.666;2023-04-12T03:01:03;99524.91;;;22.40;43.45
69717;BME280;67420;46.144;19.666;2023-04-12T03:11:08;99515.31;;;22.37;43.86
69717;BME280;67420;46.144;19.666;2023-04-12T03:21:10;99531.41;;;22.37;44.05
69717;BME280;67420;46.144;19.666;2023-04-12T03:31:12;99493.13;;;22.27;43.64
69717;BME280;67420;46.144;19.666;2023-04-12T03:41:14;99517.16;;;22.37;43.92
69717;BME280;67420;46.144;19.666;2023-04-12T03:51:17;99511.94;;;22.35;43.60
69717;BME280;67420;46.144;19.666;2023-04-12T04:01:18;99512.13;;;22.33;44.01
69717;BME280;67420;46.144;19.666;2023-04-12T04:11:21;99511.44;;;22.31;43.46
69717;BME280;67420;46.144;19.666;2023-04-12T04:21:25;99501.69;;;22.30;43.99
69717;BME280;67420;46.144;19.666;2023-04-12T04:31:27;99517.13;;;22.28;43.86
69717;BME280;67420;46.144;19.666;2023-04-12T04:41:35;99530.06;;;22.33;43.98
69717;BME280;67420;46.144;19.666;2023-04-12T04:51:40;99528.53;;;22.30;43.88
69717;BME280;67420;46.144;19.666;2023-04-12T05:01:42;99542.50;;;22.34;44.06
69717;BME280;67420;46.144;19.666;2023-04-12T05:11:44;99553.53;;;22.31;44.27
69717;BME280;67420;46.144;19.666;2023-04-12T05:21:47;99543.66;;;22.31;43.80
69717;BME280;67420;46.144;19.666;2023-04-12T05:31:49;99546.03;;;22.34;43.95
69717;BME280;67420;46.144;19.666;2023-04-12T05:41:51;99546.53;;;22.38;44.50
69717;BME280;67420;46.144;19.666;2023-04-12T05:51:53;99554.81;;;22.45;44.41
69717;BME280;67420;46.144;19.666;2023-04-12T06:01:55;99554.50;;;22.48;44.67
69717;BME280;67420;46.144;19.666;2023-04-12T06:11:57;99548.59;;;22.44;44.39
69717;BME280;67420;46.144;19.666;2023-04-12T06:21:59;99554.19;;;22.51;44.38
69717;BME280;67420;46.144;19.666;2023-04-12T06:32:01;99554.72;;;22.54;44.26
69717;BME280;67420;46.144;19.666;2023-04-12T06:42:04;99551.19;;;22.54;44.54
69717;BME280;67420;46.144;19.666;2023-04-12T06:52:06;99558.25;;;22.55;44.53
69717;BME280;67420;46.144;19.666;2023-04-12T07:02:08;99555.25;;;22.58;44.59
69717;BME280;67420;46.144;19.666;2023-04-12T07:12:09;99563.66;;;22.63;44.51
69717;BME280;67420;46.144;19.666;2023-04-12T07:22:11;99545.81;;;22.54;44.66
69717;BME280;67420;46.144;19.666;2023-04-12T07:32:14;99549.03;;;22.57;44.30
69717;BME280;67420;46.144;19.666;2023-04-12T07:42:16;99544.28;;;22.51;44.24
69717;BME280;67420;46.144;19.666;2023-04-12T07:52:18;99567.84;;;22.57;44.63
69717;BME280;67420;46.144;19.666;2023-04-12T08:02:20;99561.63;;;22.57;44.38
69717;BME280;67420;46.144;19.666;2023-04-12T08:12:26;99565.88;;;22.67;44.15
69717;BME280;67420;46.144;19.666;2023-04-12T08:22:28;99569.56;;;22.66;44.50
69717;BME280;67420;46.144;19.666;2023-04-12T08:32:30;99569.56;;;22.66;44.12
69717;BME280;67420;46.144;19.666;2023-04-12T08:42:36;99557.44;;;22.62;44.13
69717;BME280;67420;46.144;19.666;2023-04-12T08:52:39;99558.97;;;22.65;44.64
69717;BME280;67420;46.144;19.666;2023-04-12T09:02:41;99555.59;;;22.63;44.84
69717;BME280;67420;46.144;19.666;2023-04-12T09:12:46;99547.75;;;22.69;44.73
69717;BME280;67420;46.144;19.666;2023-04-12T09:22:51;99546.13;;;22.77;44.44
69717;BME280;67420;46.144;19.666;2023-04-12T09:33:09;99538.38;;;22.74;44.94
69717;BME280;67420;46.144;19.666;2023-04-12T09:43:11;99504.94;;;22.68;44.42
69717;BME280;67420;46.144;19.666;2023-04-12T09:53:17;99512.34;;;22.74;44.35
69717;BME280;67420;46.144;19.666;2023-04-12T10:03:20;99523.66;;;22.78;44.40
69717;BME280;67420;46.144;19.666;2023-04-12T10:13:22;99497.06;;;22.75;44.47
69717;BME280;67420;46.144;19.666;2023-04-12T10:23:26;99491.50;;;22.68;44.43
69717;BME280;67420;46.144;19.666;2023-04-12T10:33:29;99472.00;;;22.66;43.77
69717;BME280;67420;46.144;19.666;2023-04-12T10:43:31;99476.75;;;22.72;44.36
69717;BME280;67420;46.144;19.666;2023-04-12T10:53:33;99462.78;;;22.68;43.94
69717;BME280;67420;46.144;19.666;2023-04-12T11:03:35;99470.16;;;22.66;44.16
69717;BME280;67420;46.144;19.666;2023-04-12T11:13:37;99460.94;;;22.69;43.75
69717;BME280;67420;46.144;19.666;2023-04-12T11:23:41;99445.47;;;22.63;44.10
69717;BME280;67420;46.144;19.666;2023-04-12T11:33:44;99438.25;;;22.63;43.71
69717;BME280;67420;46.144;19.666;2023-04-12T11:43:46;99454.03;;;22.66;44.16
69717;BME280;67420;46.144;19.666;2023-04-12T11:53:52;99430.34;;;22.62;43.63
69717;BME280;67420;46.144;19.666;2023-04-12T12:03:55;99412.91;;;22.58;43.51
69717;BME280;67420;46.144;19.666;2023-04-12T12:13:58;99434.41;;;22.66;43.80
69717;BME280;67420;46.144;19.666;2023-04-12T12:24:01;99427.34;;;22.65;43.87
69717;BME280;67420;46.144;19.666;2023-04-12T12:34:03;99408.53;;;22.65;43.87
69717;BME280;67420;46.144;19.666;2023-04-12T12:44:10;99382.69;;;22.64;43.51
69717;BME280;67420;46.144;19.666;2023-04-12T12:54:15;99388.06;;;22.64;43.62
69717;BME280;67420;46.144;19.666;2023-04-12T13:04:37;99368.94;;;22.59;43.53
69717;BME280;67420;46.144;19.666;2023-04-12T13:14:38;99351.97;;;22.58;43.75
69717;BME280;67420;46.144;19.666;2023-04-12T13:24:42;99364.03;;;22.62;43.56
69717;BME280;67420;46.144;19.666;2023-04-12T13:34:44;99360.50;;;22.62;43.54
69717;BME280;67420;46.144;19.666;2023-04-12T13:44:46;99340.88;;;22.61;43.56
69717;BME280;67420;46.144;19.666;2023-04-12T13:54:49;99351.28;;;22.56;43.63
69717;BME280;67420;46.144;19.666;2023-04-12T14:04:52;99367.41;;;22.64;43.80
69717;BME280;67420;46.144;19.666;2023-04-12T14:14:54;99335.66;;;22.52;43.51
69717;BME280;67420;46.144;19.666;2023-04-12T14:24:57;99363.19;;;22.62;43.63
69717;BME280;67420;46.144;19.666;2023-04-12T14:34:59;99352.47;;;22.62;43.60
69717;BME280;67420;46.144;19.666;2023-04-12T14:45:02;99341.38;;;22.57;43.70
69717;BME280;67420;46.144;19.666;2023-04-12T14:55:06;99365.03;;;22.61;43.62
69717;BME280;67420;46.144;19.666;2023-04-12T15:05:09;99352.81;;;22.59;43.67
69717;BME280;67420;46.144;19.666;2023-04-12T15:15:11;99350.78;;;22.61;43.40
69717;BME280;67420;46.144;19.666;2023-04-12T15:25:13;99344.91;;;22.57;43.51
69717;BME280;67420;46.144;19.666;2023-04-12T15:35:16;99320.72;;;22.49;43.75
69717;BME280;67420;46.144;19.666;2023-04-12T15:45:27;99335.19;;;22.56;43.33
69717;BME280;67420;46.144;19.666;2023-04-12T15:55:29;99342.38;;;22.56;43.12
69717;BME280;67420;46.144;19.666;2023-04-12T16:05:33;99330.78;;;22.47;43.24
69717;BME280;67420;46.144;19.666;2023-04-12T16:15:35;99338.66;;;22.49;43.59
69717;BME280;67420;46.144;19.666;2023-04-12T16:25:38;99334.81;;;22.51;43.46
69717;BME280;67420;46.144;19.666;2023-04-12T16:35:41;99328.94;;;22.48;43.21
69717;BME280;67420;46.144;19.666;2023-04-12T16:45:44;99337.81;;;22.48;43.54
69717;BME280;67420;46.144;19.666;2023-04-12T16:55:47;99336.47;;;22.44;43.53
69717;BME280;67420;46.144;19.666;2023-04-12T17:05:51;99345.56;;;22.51;43.51
69717;BME280;67420;46.144;19.666;2023-04-12T17:15:53;99345.72;;;22.50;43.80
69717;BME280;67420;46.144;19.666;2023-04-12T17:25:56;99335.13;;;22.48;43.51
69717;BME280;67420;46.144;19.666;2023-04-12T17:35:58;99335.66;;;22.52;43.37
69717;BME280;67420;46.144;19.666;2023-04-12T17:46:03;99330.97;;;22.54;43.74
69717;BME280;67420;46.144;19.666;2023-04-12T17:56:07;99321.56;;;22.50;43.69
69717;BME280;67420;46.144;19.666;2023-04-12T18:06:10;99312.31;;;22.44;43.58
69717;BME280;67420;46.144;19.666;2023-04-12T18:16:14;99328.44;;;22.52;43.39
69717;BME280;67420;46.144;19.666;2023-04-12T18:26:16;99326.13;;;22.57;43.61
69717;BME280;67420;46.144;19.666;2023-04-12T18:36:18;99311.97;;;22.47;43.36
69717;BME280;67420;46.144;19.666;2023-04-12T18:46:20;99345.06;;;22.56;43.84
69717;BME280;67420;46.144;19.666;2023-04-12T18:56:22;99344.75;;;22.59;43.78
69717;BME280;67420;46.144;19.666;2023-04-12T19:06:25;99344.06;;;22.57;43.35
69717;BME280;67420;46.144;19.666;2023-04-12T19:16:29;99336.19;;;22.55;43.49
69717;BME280;67420;46.144;19.666;2023-04-12T19:26:32;99339.03;;;22.54;43.58
69717;BME280;67420;46.144;19.666;2023-04-12T19:36:37;99317.19;;;22.49;43.28
69717;BME280;67420;46.144;19.666;2023-04-12T19:46:39;99325.59;;;22.54;43.32
69717;BME280;67420;46.144;19.666;2023-04-12T19:56:41;99321.72;;;22.48;43.55
69717;BME280;67420;46.144;19.666;2023-04-12T20:06:45;99317.50;;;22.46;43.57
69717;BME280;67420;46.144;19.666;2023-04-12T20:16:48;99326.44;;;22.54;43.31
69717;BME280;67420;46.144;19.666;2023-04-12T20:26:51;99312.81;;;22.48;43.47
69717;BME280;67420;46.144;19.666;2023-04-12T20:36:54;99318.19;;;22.48;43.78
69717;BME280;67420;46.144;19.666;2023-04-12T20:46:56;99319.53;;;22.52;43.19
69717;BME280;67420;46.144;19.666;2023-04-12T20:56:59;99295.03;;;22.47;43.76
69717;BME280;67420;46.144;19.666;2023-04-12T21:07:04;99299.38;;;22.48;43.31
69717;BME280;67420;46.144;19.666;2023-04-12T21:17:06;99300.22;;;22.48;43.62
69717;BME280;67420;46.144;19.666;2023-04-12T21:27:08;99293.84;;;22.49;43.40
69717;BME280;67420;46.144;19.666;2023-04-12T21:37:11;99309.97;;;22.49;43.40
69717;BME280;67420;46.144;19.666;2023-04-12T21:47:13;99312.50;;;22.51;43.33
69717;BME280;67420;46.144;19.666;2023-04-12T21:57:15;99302.06;;;22.48;43.30
69717;BME280;67420;46.144;19.666;2023-04-12T22:07:17;99302.25;;;22.46;43.30
69717;BME280;67420;46.144;19.666;2023-04-12T22:17:21;99302.06;;;22.48;43.38
69717;BME280;67420;46.144;19.666;2023-04-12T22:27:24;99292.50;;;22.45;43.36
69717;BME280;67420;46.144;19.666;2023-04-12T22:37:27;99283.44;;;22.46;43.48
69717;BME280;67420;46.144;19.666;2023-04-12T22:47:31;99280.91;;;22.45;43.29
69717;BME280;67420;46.144;19.666;2023-04-12T22:57:33;99259.41;;;22.37;43.56
69717;BME280;67420;46.144;19.666;2023-04-12T23:07:37;99263.13;;;22.44;43.21
69717;BME280;67420;46.144;19.666;2023-04-12T23:17:39;99239.13;;;22.42;43.62
69717;BME280;67420;46.144;19.666;2023-04-12T23:27:41;99227.34;;;22.35;43.60
69717;BME280;67420;46.144;19.666;2023-04-12T23:37:43;99228.53;;;22.41;43.60
69717;BME280;67420;46.144;19.666;2023-04-12T23:47:46;99209.06;;;22.39;43.49
69717;BME280;67420;46.144;19.666;2023-04-12T23:57:48;99197.81;;;22.35;43.20
